หน้าหลัก
METAR-TAF:

METAR-TAF

ท่าอากาศยาน :

Ringkøbing-Skjern, เดนมาร์ก

ละติจูด: 56-00N, ลองจิจูด: 008-21E, ความสูง: 5 ม.

การสังเกตสภาพอากาศปัจจุบัน

รายงานได้ทำขึ้นเมื่อ 37 นาทีที่แล้ว ณ เวลา 02:20 UTC
ลม 5 นอตจากตะวันตก
อุณหภูมิ 14°C
ความชื้น 82%
ความกดอากาศ 1014 hPa
ทัศนวิสัย 10 กม. หรือมากกว่า

METAR: EKVJ 250220Z AUTO 28005KT 9999 BKN021/// 14/11 Q1014

เวลา: 04:57 (02:57 UTC)


TAF: หายไป

สังเกตการณ์สภาพอากาศและพยากรณ์อากาศของสนามบินมากกว่า 4000 แห่ง (รายงาน METAR และ TAF).

สถานีที่ดูได้จะแสดงไว้ด้วยจุดสีเหลืองและสีแดงบนแผนที่.

เลื่อนเมาส์ไปเหนือจุดเพื่อดูชื่อสถานี.

แล้วคลิกเพื่อดูสังเกตการณ์และการพยากรณ์สภาพอากาศ.

ในการเปลี่ยนแผนที่: คลิกที่ปุ่มสีเขียวที่มีกากบาทสีดำเพื่อซูมเข้า; ที่ปุ่มสีเขียวที่มีขีดเพื่อซูมออก; หรือที่ลูกศรสีเขียวเพื่อไปยังแผนที่ที่อยู่ติดกัน.


METAR-TAF: